Time;durP1;ratioP1;P1;durP2;ratioP2;P2;SDS_P1;SDS_P2;PMS_P1;PMS_P2;Temp;Humidity;BMP_temperature;BMP_pressure;BME280_temperature;BME280_humidity;BME280_pressure;Samples;Min_cycle;Max_cycle;Signal;HPM_P1;HPM_P2
2023/12/16 00:00:39;;;;;;;15.93;7.72;;;;;;;;;;5028649;28;20021;-64
2023/12/16 00:03:05;;;;;;;11.90;7.20;;;;;;;;;;5029453;28;20053;-65
2023/12/16 00:05:31;;;;;;;12.35;5.72;;;;;;;;;;5041023;28;20033;-64
2023/12/16 00:07:57;;;;;;;10.80;7.20;;;;;;;;;;5049299;28;20115;-64
2023/12/16 00:10:23;;;;;;;9.00;6.60;;;;;;;;;;5029094;28;20542;-64
2023/12/16 00:12:49;;;;;;;11.02;6.55;;;;;;;;;;5011302;28;20033;-64
2023/12/16 00:15:15;;;;;;;9.90;6.88;;;;;;;;;;5030448;28;20026;-64
2023/12/16 00:17:41;;;;;;;11.18;7.38;;;;;;;;;;5024684;28;20444;-64
2023/12/16 00:20:08;;;;;;;10.88;7.22;;;;;;;;;;5026933;28;20105;-64
2023/12/16 00:22:38;;;;;;;12.77;7.63;;;;;;;;;;5028152;28;20026;-64
2023/12/16 00:25:04;;;;;;;14.48;7.43;;;;;;;;;;5030317;28;20052;-64
2023/12/16 00:27:30;;;;;;;10.57;6.85;;;;;;;;;;5029172;28;20125;-64
2023/12/16 00:29:56;;;;;;;8.65;5.93;;;;;;;;;;5032629;28;20545;-64
2023/12/16 00:32:22;;;;;;;11.10;7.05;;;;;;;;;;5030156;28;20088;-64
2023/12/16 00:34:48;;;;;;;13.20;6.75;;;;;;;;;;5022010;28;20029;-64
2023/12/16 00:37:14;;;;;;;11.55;6.28;;;;;;;;;;5023326;28;20379;-64
2023/12/16 00:39:39;;;;;;;10.07;6.78;;;;;;;;;;5020030;28;20026;-64
2023/12/16 00:42:07;;;;;;;9.88;5.88;;;;;;;;;;5020827;28;20044;-64
2023/12/16 00:44:33;;;;;;;10.38;6.85;;;;;;;;;;5021096;28;20020;-64
2023/12/16 00:46:59;;;;;;;11.65;6.20;;;;;;;;;;5026693;28;20076;-64
2023/12/16 00:49:25;;;;;;;10.15;6.82;;;;;;;;;;5021353;28;20033;-64
2023/12/16 00:51:51;;;;;;;10.27;6.68;;;;;;;;;;5025137;28;20030;-64
2023/12/16 00:54:17;;;;;;;10.40;6.95;;;;;;;;;;5026526;28;20022;-64
2023/12/16 00:56:43;;;;;;;9.70;5.93;;;;;;;;;;5031297;28;20043;-64
2023/12/16 00:59:09;;;;;;;8.07;6.00;;;;;;;;;;5043381;28;20370;-63
2023/12/16 01:01:35;;;;;;;9.38;6.40;;;;;;;;;;5029994;28;20512;-64
2023/12/16 01:04:01;;;;;;;10.95;7.25;;;;;;;;;;5027381;28;20100;-63
2023/12/16 01:06:27;;;;;;;10.23;7.10;;;;;;;;;;5027369;28;20053;-64
2023/12/16 01:08:53;;;;;;;9.50;6.95;;;;;;;;;;5026364;28;20036;-64
2023/12/16 01:11:19;;;;;;;9.13;6.25;;;;;;;;;;5028995;28;20030;-64
2023/12/16 01:13:45;;;;;;;12.57;7.05;;;;;;;;;;5024827;28;20046;-64
2023/12/16 01:16:11;;;;;;;10.63;7.18;;;;;;;;;;5029753;28;20091;-64
2023/12/16 01:18:37;;;;;;;10.43;6.22;;;;;;;;;;5027923;28;20101;-64
2023/12/16 01:21:08;;;;;;;9.95;5.97;;;;;;;;;;5026614;28;20036;-64
2023/12/16 01:23:34;;;;;;;7.50;5.80;;;;;;;;;;5030367;28;20072;-65
2023/12/16 01:26:00;;;;;;;7.68;6.10;;;;;;;;;;5028202;28;20475;-64
2023/12/16 01:28:26;;;;;;;9.05;6.13;;;;;;;;;;5027713;28;20029;-64
2023/12/16 01:30:52;;;;;;;8.90;6.40;;;;;;;;;;5034633;28;20047;-64
2023/12/16 01:33:18;;;;;;;7.97;5.70;;;;;;;;;;5044495;28;20100;-64
2023/12/16 01:35:44;;;;;;;11.63;6.93;;;;;;;;;;5043388;28;20021;-64
2023/12/16 01:38:10;;;;;;;13.05;6.55;;;;;;;;;;5043431;28;20025;-63
2023/12/16 01:40:37;;;;;;;10.93;6.38;;;;;;;;;;5044979;28;20014;-64
2023/12/16 01:43:08;;;;;;;9.85;6.78;;;;;;;;;;5042860;28;20045;-63
2023/12/16 01:45:34;;;;;;;11.30;7.13;;;;;;;;;;5043851;28;20530;-64
2023/12/16 01:48:03;;;;;;;7.20;5.20;;;;;;;;;;5044560;28;20048;-64
2023/12/16 01:50:29;;;;;;;9.30;6.30;;;;;;;;;;5045102;28;20028;-64
2023/12/16 01:52:55;;;;;;;7.57;5.38;;;;;;;;;;5042589;28;20021;-64
2023/12/16 01:55:21;;;;;;;14.18;8.02;;;;;;;;;;5045006;28;20036;-63
2023/12/16 01:57:47;;;;;;;10.38;6.25;;;;;;;;;;5041105;28;20100;-63
2023/12/16 02:00:14;;;;;;;10.20;5.80;;;;;;;;;;5043286;28;20108;-64
2023/12/16 02:02:40;;;;;;;7.90;5.60;;;;;;;;;;5043169;28;20021;-64
2023/12/16 02:05:10;;;;;;;8.88;5.65;;;;;;;;;;5042884;28;20378;-63
2023/12/16 02:07:36;;;;;;;8.57;6.72;;;;;;;;;;5042188;28;20096;-64
2023/12/16 02:10:02;;;;;;;12.05;7.60;;;;;;;;;;5044516;28;20108;-64
2023/12/16 02:12:28;;;;;;;12.05;7.68;;;;;;;;;;5043539;28;20029;-64
2023/12/16 02:14:54;;;;;;;11.00;7.13;;;;;;;;;;5042464;28;20086;-64
2023/12/16 02:17:20;;;;;;;10.50;7.47;;;;;;;;;;5042627;28;20045;-63
2023/12/16 02:19:48;;;;;;;13.00;8.52;;;;;;;;;;5042053;28;20025;-63
2023/12/16 02:22:14;;;;;;;11.32;7.90;;;;;;;;;;5042902;28;20520;-64
2023/12/16 02:24:41;;;;;;;9.30;7.18;;;;;;;;;;5026067;28;20057;-64
2023/12/16 02:27:08;;;;;;;9.40;6.45;;;;;;;;;;5045457;28;20025;-64
2023/12/16 02:29:34;;;;;;;12.52;7.43;;;;;;;;;;5041108;28;20508;-65
2023/12/16 02:32:00;;;;;;;11.32;7.55;;;;;;;;;;5042535;28;20045;-63
2023/12/16 02:34:26;;;;;;;13.85;7.80;;;;;;;;;;5043022;28;20032;-63
2023/12/16 02:36:53;;;;;;;9.63;6.82;;;;;;;;;;5040354;28;20028;-63
2023/12/16 02:39:19;;;;;;;13.05;6.95;;;;;;;;;;5041819;28;20100;-64
2023/12/16 02:41:45;;;;;;;10.63;6.85;;;;;;;;;;5040431;28;20539;-63
2023/12/16 02:44:11;;;;;;;10.25;7.00;;;;;;;;;;5040913;28;20047;-63
2023/12/16 02:46:37;;;;;;;9.90;6.45;;;;;;;;;;5041546;28;20038;-64
2023/12/16 02:49:03;;;;;;;9.98;6.40;;;;;;;;;;5041269;28;20026;-64
2023/12/16 02:51:29;;;;;;;10.93;6.63;;;;;;;;;;5042984;28;20025;-64
2023/12/16 02:53:55;;;;;;;9.55;7.38;;;;;;;;;;5041917;28;20037;-64
2023/12/16 02:56:22;;;;;;;10.85;6.97;;;;;;;;;;5041444;28;20132;-64
2023/12/16 02:58:48;;;;;;;11.13;7.03;;;;;;;;;;5041611;28;20095;-64
2023/12/16 03:01:14;;;;;;;10.40;7.05;;;;;;;;;;5041946;28;20528;-64
2023/12/16 03:03:40;;;;;;;11.32;6.78;;;;;;;;;;5040615;28;20030;-65
2023/12/16 03:06:07;;;;;;;8.80;6.57;;;;;;;;;;5042193;28;20025;-64
2023/12/16 03:08:34;;;;;;;9.50;5.88;;;;;;;;;;5042200;28;20091;-64
2023/12/16 03:11:00;;;;;;;8.77;5.68;;;;;;;;;;5039885;28;20104;-64
2023/12/16 03:13:26;;;;;;;8.25;5.75;;;;;;;;;;5042057;28;20025;-63
2023/12/16 03:15:52;;;;;;;8.20;5.35;;;;;;;;;;5040623;28;20568;-63
2023/12/16 03:18:18;;;;;;;8.82;5.78;;;;;;;;;;5042063;28;20049;-63
2023/12/16 03:20:44;;;;;;;7.78;5.68;;;;;;;;;;5041124;28;20028;-63
2023/12/16 03:23:10;;;;;;;8.80;6.03;;;;;;;;;;5041854;28;20383;-64
2023/12/16 03:25:39;;;;;;;10.57;6.47;;;;;;;;;;5041952;28;20033;-63
2023/12/16 03:28:05;;;;;;;9.60;5.68;;;;;;;;;;5044407;28;20023;-63
2023/12/16 03:30:31;;;;;;;9.68;6.05;;;;;;;;;;5048687;28;20131;-64
2023/12/16 03:32:57;;;;;;;7.78;5.45;;;;;;;;;;5042501;28;20025;-63
2023/12/16 03:35:23;;;;;;;7.32;5.32;;;;;;;;;;5046326;28;20052;-63
2023/12/16 03:37:49;;;;;;;8.38;5.38;;;;;;;;;;5038284;28;20025;-64
2023/12/16 03:40:15;;;;;;;7.78;5.25;;;;;;;;;;5042120;28;20454;-63
2023/12/16 03:42:41;;;;;;;6.18;4.70;;;;;;;;;;5044998;28;20056;-64
2023/12/16 03:45:07;;;;;;;6.50;4.65;;;;;;;;;;5049633;28;20052;-64
2023/12/16 03:47:33;;;;;;;7.13;5.18;;;;;;;;;;5049110;28;20082;-63
2023/12/16 03:49:59;;;;;;;6.75;5.13;;;;;;;;;;5032098;28;20104;-63
2023/12/16 03:52:25;;;;;;;8.38;5.55;;;;;;;;;;5051294;28;20037;-63
2023/12/16 03:54:51;;;;;;;9.82;5.70;;;;;;;;;;5049535;28;20029;-64
2023/12/16 03:57:17;;;;;;;7.10;5.30;;;;;;;;;;5049309;28;20331;-63
2023/12/16 03:59:43;;;;;;;7.90;5.40;;;;;;;;;;5031439;28;20025;-64
2023/12/16 04:02:12;;;;;;;6.78;4.90;;;;;;;;;;5048321;28;20029;-64
2023/12/16 04:04:47;;;;;;;8.68;5.25;;;;;;;;;;5048924;28;20191;-64
2023/12/16 04:07:15;;;;;;;6.40;5.05;;;;;;;;;;5049361;28;20381;-64
2023/12/16 04:09:41;;;;;;;7.63;4.80;;;;;;;;;;5049502;28;20071;-64
2023/12/16 04:12:07;;;;;;;7.82;5.28;;;;;;;;;;5048316;28;20033;-64
2023/12/16 04:14:40;;;;;;;8.00;4.50;;;;;;;;;;5050230;28;20118;-64
2023/12/16 04:17:09;;;;;;;10.80;4.90;;;;;;;;;;5049269;28;20021;-64
2023/12/16 04:19:35;;;;;;;7.25;4.65;;;;;;;;;;5042117;28;20082;-65
2023/12/16 04:22:12;;;;;;;7.85;4.68;;;;;;;;;;5030613;28;20033;-64
2023/12/16 04:24:38;;;;;;;8.05;5.18;;;;;;;;;;5048430;28;20393;-64
2023/12/16 04:27:13;;;;;;;9.38;5.47;;;;;;;;;;5052766;28;20025;-63
2023/12/16 04:29:42;;;;;;;8.00;5.13;;;;;;;;;;5052748;28;20095;-64
2023/12/16 04:32:08;;;;;;;8.30;5.50;;;;;;;;;;5051427;28;20040;-64
2023/12/16 04:34:34;;;;;;;9.55;5.38;;;;;;;;;;5053205;28;20021;-63
2023/12/16 04:37:00;;;;;;;10.00;4.85;;;;;;;;;;5052937;28;20067;-64
2023/12/16 04:39:26;;;;;;;9.43;5.13;;;;;;;;;;5053875;28;20485;-64
2023/12/16 04:41:52;;;;;;;7.53;5.07;;;;;;;;;;5050986;28;20068;-64
2023/12/16 04:44:18;;;;;;;6.10;4.57;;;;;;;;;;5053749;28;20079;-64
2023/12/16 04:46:44;;;;;;;9.07;5.50;;;;;;;;;;5052340;28;20021;-64
2023/12/16 04:49:10;;;;;;;6.20;4.45;;;;;;;;;;5053525;28;20389;-64
2023/12/16 04:51:36;;;;;;;6.18;4.80;;;;;;;;;;5051112;28;20029;-64
2023/12/16 04:54:02;;;;;;;6.13;4.70;;;;;;;;;;5053682;28;20029;-63
2023/12/16 04:56:28;;;;;;;8.23;5.18;;;;;;;;;;5052780;28;20025;-64
2023/12/16 04:58:54;;;;;;;8.38;6.05;;;;;;;;;;5051750;28;20096;-64
2023/12/16 05:01:20;;;;;;;7.72;5.28;;;;;;;;;;5056785;28;20016;-64
2023/12/16 05:03:47;;;;;;;7.15;5.30;;;;;;;;;;5058968;28;20028;-64
2023/12/16 05:06:13;;;;;;;7.75;5.65;;;;;;;;;;5051130;28;20087;-64
2023/12/16 05:08:39;;;;;;;9.40;6.25;;;;;;;;;;5052151;28;20025;-64
2023/12/16 05:11:05;;;;;;;10.82;6.10;;;;;;;;;;5050887;28;20021;-64
2023/12/16 05:13:31;;;;;;;10.68;6.40;;;;;;;;;;5051373;28;20355;-64
2023/12/16 05:15:57;;;;;;;12.60;7.82;;;;;;;;;;5051489;28;20032;-64
2023/12/16 05:18:24;;;;;;;12.65;8.15;;;;;;;;;;5044495;28;20056;-64
2023/12/16 05:20:50;;;;;;;9.98;6.85;;;;;;;;;;5052162;28;20017;-64
2023/12/16 05:23:16;;;;;;;10.90;7.13;;;;;;;;;;5052522;28;20033;-65
2023/12/16 05:25:42;;;;;;;7.60;6.05;;;;;;;;;;5050917;28;20025;-64
2023/12/16 05:28:08;;;;;;;7.95;5.72;;;;;;;;;;5051901;28;20029;-65
2023/12/16 05:30:35;;;;;;;6.95;4.65;;;;;;;;;;5052133;28;20132;-64
2023/12/16 05:33:12;;;;;;;5.25;4.03;;;;;;;;;;5052213;28;20032;-64
2023/12/16 05:35:38;;;;;;;7.57;4.28;;;;;;;;;;5050648;28;20033;-63
2023/12/16 05:38:07;;;;;;;7.18;3.67;;;;;;;;;;5050487;28;20024;-64
2023/12/16 05:40:33;;;;;;;4.43;3.85;;;;;;;;;;5036088;28;20017;-64
2023/12/16 05:42:59;;;;;;;6.15;4.43;;;;;;;;;;5051120;28;20513;-64
2023/12/16 05:45:25;;;;;;;4.82;3.72;;;;;;;;;;5052648;28;20029;-63
2023/12/16 05:47:51;;;;;;;7.47;4.60;;;;;;;;;;5050968;28;20029;-64
2023/12/16 05:50:17;;;;;;;7.03;4.60;;;;;;;;;;5052431;28;20028;-64
2023/12/16 05:52:43;;;;;;;11.95;5.10;;;;;;;;;;5051316;28;20370;-64
2023/12/16 05:55:09;;;;;;;6.45;4.55;;;;;;;;;;5051314;28;20111;-64
2023/12/16 05:57:35;;;;;;;10.13;4.82;;;;;;;;;;5050743;28;20040;-64
2023/12/16 06:00:01;;;;;;;6.88;5.22;;;;;;;;;;5052053;28;20032;-64
2023/12/16 06:02:27;;;;;;;7.68;5.53;;;;;;;;;;5049377;28;20048;-64
2023/12/16 06:04:53;;;;;;;9.85;5.00;;;;;;;;;;5043897;28;20580;-63
2023/12/16 06:07:19;;;;;;;6.88;4.88;;;;;;;;;;5050662;28;20532;-62
2023/12/16 06:09:45;;;;;;;9.77;5.75;;;;;;;;;;5037572;28;20025;-63
2023/12/16 06:12:11;;;;;;;8.55;5.57;;;;;;;;;;5048029;28;20341;-63
2023/12/16 06:14:37;;;;;;;8.00;5.38;;;;;;;;;;5049870;28;20112;-63
2023/12/16 06:17:03;;;;;;;8.30;5.07;;;;;;;;;;5050113;28;20090;-64
2023/12/16 06:19:29;;;;;;;13.52;5.25;;;;;;;;;;5046472;28;20071;-63
2023/12/16 06:21:55;;;;;;;9.38;5.22;;;;;;;;;;5048798;28;20045;-63
2023/12/16 06:24:21;;;;;;;7.90;5.25;;;;;;;;;;5050506;28;20430;-63
2023/12/16 06:26:47;;;;;;;6.40;4.85;;;;;;;;;;5049907;28;20028;-63
2023/12/16 06:29:13;;;;;;;10.00;5.97;;;;;;;;;;5050268;28;20025;-63
2023/12/16 06:31:39;;;;;;;6.93;4.90;;;;;;;;;;5047684;28;20520;-63
2023/12/16 06:34:05;;;;;;;7.25;5.00;;;;;;;;;;5049949;28;20025;-63
2023/12/16 06:36:31;;;;;;;6.28;4.55;;;;;;;;;;5048786;28;20029;-62
2023/12/16 06:38:57;;;;;;;7.90;5.25;;;;;;;;;;5049759;28;20021;-62
2023/12/16 06:41:23;;;;;;;6.88;5.20;;;;;;;;;;5048660;28;20033;-63
2023/12/16 06:43:52;;;;;;;6.55;5.05;;;;;;;;;;5049739;28;20079;-63
2023/12/16 06:46:19;;;;;;;9.80;5.82;;;;;;;;;;5048398;28;20082;-62
2023/12/16 06:48:46;;;;;;;6.75;5.03;;;;;;;;;;5048975;28;20538;-62
2023/12/16 06:51:14;;;;;;;10.32;5.53;;;;;;;;;;5047725;28;20071;-64
2023/12/16 06:53:40;;;;;;;9.07;5.50;;;;;;;;;;5049414;28;20025;-63
2023/12/16 06:56:07;;;;;;;6.97;5.30;;;;;;;;;;5049769;28;20470;-65
2023/12/16 06:58:34;;;;;;;8.93;5.85;;;;;;;;;;5056098;28;20493;-63
2023/12/16 07:01:00;;;;;;;6.65;5.63;;;;;;;;;;5049760;28;20066;-65
2023/12/16 07:03:28;;;;;;;7.90;5.40;;;;;;;;;;5049047;28;20033;-63
2023/12/16 07:05:54;;;;;;;8.18;5.47;;;;;;;;;;5046743;28;20073;-64
2023/12/16 07:08:20;;;;;;;8.93;6.07;;;;;;;;;;5048420;28;20040;-64
2023/12/16 07:10:46;;;;;;;8.50;5.93;;;;;;;;;;5050189;28;20032;-64
2023/12/16 07:13:12;;;;;;;7.47;5.53;;;;;;;;;;5045984;28;20475;-65
2023/12/16 07:15:39;;;;;;;6.35;5.03;;;;;;;;;;5040907;28;20092;-65
2023/12/16 07:18:05;;;;;;;8.60;5.88;;;;;;;;;;5037131;28;20025;-63
2023/12/16 07:20:31;;;;;;;10.60;5.57;;;;;;;;;;5048494;28;20020;-63
2023/12/16 07:22:57;;;;;;;8.25;5.43;;;;;;;;;;5049683;28;20120;-64
2023/12/16 07:25:23;;;;;;;6.90;4.85;;;;;;;;;;5047348;28;20108;-64
2023/12/16 07:27:49;;;;;;;9.90;5.70;;;;;;;;;;5044685;28;20091;-64
2023/12/16 07:30:16;;;;;;;7.22;5.05;;;;;;;;;;5040447;28;20429;-64
2023/12/16 07:32:42;;;;;;;9.52;6.35;;;;;;;;;;5047991;28;20095;-64
2023/12/16 07:35:13;;;;;;;8.13;6.18;;;;;;;;;;5048127;28;20423;-64
2023/12/16 07:37:42;;;;;;;9.95;6.22;;;;;;;;;;5044530;28;20060;-64
2023/12/16 07:40:09;;;;;;;9.30;6.13;;;;;;;;;;5045728;28;20478;-64
2023/12/16 07:42:39;;;;;;;9.27;6.22;;;;;;;;;;5048342;28;20036;-66
2023/12/16 07:45:05;;;;;;;9.27;6.28;;;;;;;;;;5048031;28;20109;-64
2023/12/16 07:47:32;;;;;;;10.23;6.25;;;;;;;;;;5048451;28;20497;-64
2023/12/16 07:49:58;;;;;;;7.88;5.65;;;;;;;;;;5048168;28;20410;-64
2023/12/16 07:52:24;;;;;;;10.73;6.50;;;;;;;;;;5049915;28;20075;-64
2023/12/16 07:54:50;;;;;;;12.32;6.15;;;;;;;;;;5047591;28;20458;-64
2023/12/16 07:57:16;;;;;;;8.20;5.90;;;;;;;;;;5040988;28;20029;-74
2023/12/16 07:59:43;;;;;;;10.68;6.30;;;;;;;;;;5042573;28;20025;-65
2023/12/16 08:02:10;;;;;;;9.75;5.18;;;;;;;;;;5051992;28;20671;-65
2023/12/16 08:04:36;;;;;;;7.07;5.35;;;;;;;;;;5048186;28;20030;-65
2023/12/16 08:07:02;;;;;;;8.93;5.72;;;;;;;;;;5041167;28;20031;-68
2023/12/16 08:09:28;;;;;;;8.45;5.90;;;;;;;;;;5053303;28;20068;-64
2023/12/16 08:11:58;;;;;;;9.32;6.18;;;;;;;;;;5052274;28;20036;-65
2023/12/16 08:14:24;;;;;;;7.35;5.00;;;;;;;;;;5050503;28;20764;-64
2023/12/16 08:16:50;;;;;;;7.22;5.22;;;;;;;;;;5051300;28;20025;-65
2023/12/16 08:19:16;;;;;;;8.50;5.32;;;;;;;;;;5043584;28;20071;-63
2023/12/16 08:21:42;;;;;;;10.55;5.35;;;;;;;;;;5051268;28;20052;-67
2023/12/16 08:24:08;;;;;;;6.25;4.70;;;;;;;;;;5035208;28;20113;-66
2023/12/16 08:26:34;;;;;;;7.65;5.20;;;;;;;;;;5052151;28;20060;-63
2023/12/16 08:29:00;;;;;;;6.32;4.57;;;;;;;;;;5047934;28;20077;-63
2023/12/16 08:31:26;;;;;;;5.95;4.40;;;;;;;;;;5059092;28;20056;-63
2023/12/16 08:33:52;;;;;;;8.23;4.82;;;;;;;;;;5051129;28;20021;-63
2023/12/16 08:36:18;;;;;;;6.30;4.45;;;;;;;;;;5033992;28;20029;-63
2023/12/16 08:38:44;;;;;;;5.90;4.75;;;;;;;;;;5053710;28;20024;-63
2023/12/16 08:41:12;;;;;;;7.00;4.78;;;;;;;;;;5062632;28;20494;-63
2023/12/16 08:43:38;;;;;;;5.78;4.50;;;;;;;;;;5051803;28;20060;-63
2023/12/16 08:46:05;;;;;;;8.07;4.90;;;;;;;;;;5051994;28;20431;-62
2023/12/16 08:48:31;;;;;;;6.35;4.90;;;;;;;;;;5051285;28;20594;-63
2023/12/16 08:50:57;;;;;;;6.10;4.80;;;;;;;;;;5059113;28;20159;-62
2023/12/16 08:53:24;;;;;;;7.60;4.72;;;;;;;;;;5061285;28;20036;-62
2023/12/16 08:55:50;;;;;;;6.07;4.10;;;;;;;;;;5051795;28;20045;-62
2023/12/16 08:58:16;;;;;;;5.65;4.13;;;;;;;;;;5051670;28;20032;-63
2023/12/16 09:00:42;;;;;;;7.60;4.55;;;;;;;;;;5048412;28;20040;-62
2023/12/16 09:03:08;;;;;;;8.90;5.10;;;;;;;;;;5042015;28;20088;-62
2023/12/16 09:05:36;;;;;;;6.78;4.78;;;;;;;;;;5043941;28;20025;-63
2023/12/16 09:08:02;;;;;;;9.82;4.53;;;;;;;;;;5042634;28;20025;-62
2023/12/16 09:10:28;;;;;;;7.20;4.63;;;;;;;;;;5044911;28;20048;-62
2023/12/16 09:12:54;;;;;;;8.70;4.55;;;;;;;;;;5045618;28;20025;-63
2023/12/16 09:15:20;;;;;;;7.47;4.45;;;;;;;;;;5041194;28;20022;-66
2023/12/16 09:17:49;;;;;;;8.45;4.75;;;;;;;;;;5041376;28;20521;-63
2023/12/16 09:20:15;;;;;;;6.95;4.90;;;;;;;;;;5045682;28;20033;-63
2023/12/16 09:22:41;;;;;;;6.63;4.60;;;;;;;;;;5042609;28;20029;-63
2023/12/16 09:25:08;;;;;;;6.63;4.50;;;;;;;;;;5043666;28;20059;-63
2023/12/16 09:27:36;;;;;;;7.40;4.93;;;;;;;;;;5039661;28;20028;-66
2023/12/16 09:30:02;;;;;;;6.38;4.68;;;;;;;;;;5044362;28;20149;-65
2023/12/16 09:32:28;;;;;;;7.10;5.10;;;;;;;;;;5042489;28;20617;-65
2023/12/16 09:34:55;;;;;;;6.20;4.25;;;;;;;;;;5039826;28;20013;-64
2023/12/16 09:37:20;;;;;;;6.45;4.30;;;;;;;;;;5041635;28;20025;-64
2023/12/16 09:39:46;;;;;;;5.05;3.85;;;;;;;;;;5043166;28;20017;-63
2023/12/16 09:42:14;;;;;;;5.75;4.00;;;;;;;;;;5040278;28;20109;-63
2023/12/16 09:44:41;;;;;;;7.40;4.05;;;;;;;;;;5041430;28;20028;-64
2023/12/16 09:47:12;;;;;;;7.68;4.82;;;;;;;;;;5041404;28;20032;-63
2023/12/16 09:49:38;;;;;;;9.77;5.90;;;;;;;;;;5040850;28;20025;-64
2023/12/16 09:52:05;;;;;;;8.52;5.70;;;;;;;;;;5040973;28;20028;-63
2023/12/16 09:54:31;;;;;;;7.63;5.88;;;;;;;;;;5042849;28;20037;-63
2023/12/16 09:56:58;;;;;;;9.88;6.05;;;;;;;;;;5041368;28;20060;-63
2023/12/16 09:59:24;;;;;;;10.52;6.88;;;;;;;;;;5037694;28;20038;-63
2023/12/16 10:01:53;;;;;;;9.18;6.00;;;;;;;;;;5039852;28;20037;-63
2023/12/16 10:04:22;;;;;;;9.00;6.60;;;;;;;;;;5043256;28;20025;-63
2023/12/16 10:06:48;;;;;;;8.18;5.88;;;;;;;;;;5041686;28;20017;-64
2023/12/16 10:09:14;;;;;;;10.50;6.20;;;;;;;;;;5042503;28;20139;-63
2023/12/16 10:11:40;;;;;;;10.05;6.40;;;;;;;;;;5040173;28;20451;-63
2023/12/16 10:14:07;;;;;;;8.93;6.57;;;;;;;;;;5050701;28;20442;-63
2023/12/16 10:16:33;;;;;;;10.00;6.75;;;;;;;;;;5033845;28;20053;-63
2023/12/16 10:18:59;;;;;;;10.88;6.30;;;;;;;;;;5043532;28;20128;-63
2023/12/16 10:21:25;;;;;;;12.25;5.80;;;;;;;;;;5049837;28;20023;-63
2023/12/16 10:23:51;;;;;;;9.50;6.18;;;;;;;;;;5049765;28;20013;-63
2023/12/16 10:26:17;;;;;;;9.45;6.38;;;;;;;;;;5050073;28;20051;-63
2023/12/16 10:28:46;;;;;;;10.35;5.70;;;;;;;;;;5048398;28;20023;-63
2023/12/16 10:31:13;;;;;;;9.03;6.60;;;;;;;;;;5039971;28;20160;-63
2023/12/16 10:33:39;;;;;;;10.52;6.78;;;;;;;;;;5042669;28;20373;-63
2023/12/16 10:36:05;;;;;;;7.25;5.70;;;;;;;;;;5050266;28;20057;-63
2023/12/16 10:38:31;;;;;;;8.55;6.22;;;;;;;;;;5038194;28;20045;-63
2023/12/16 10:40:57;;;;;;;7.72;6.03;;;;;;;;;;5029978;28;20382;-63
2023/12/16 10:43:23;;;;;;;8.02;5.95;;;;;;;;;;5029607;28;20065;-63
2023/12/16 10:45:50;;;;;;;8.57;7.07;;;;;;;;;;5028702;28;20087;-63
2023/12/16 10:48:17;;;;;;;8.73;6.32;;;;;;;;;;5029596;28;20060;-62
2023/12/16 10:50:46;;;;;;;8.30;6.32;;;;;;;;;;5029496;28;20467;-61
2023/12/16 10:53:15;;;;;;;10.33;6.37;;;;;;;;;;5029782;28;20033;-67
2023/12/16 10:55:44;;;;;;;10.68;6.32;;;;;;;;;;5028354;28;20355;-67
2023/12/16 10:58:10;;;;;;;7.72;5.85;;;;;;;;;;5029877;28;20037;-66
2023/12/16 11:00:38;;;;;;;10.07;6.85;;;;;;;;;;5030024;28;20029;-62
2023/12/16 11:03:20;;;;;;;10.55;6.97;;;;;;;;;;5028804;28;20026;-63
2023/12/16 11:05:51;;;;;;;9.88;6.65;;;;;;;;;;5028110;28;20029;-63
2023/12/16 11:08:17;;;;;;;8.73;6.65;;;;;;;;;;5013440;28;20052;-66
2023/12/16 11:10:43;;;;;;;11.88;6.32;;;;;;;;;;5029630;28;20009;-63
2023/12/16 11:13:09;;;;;;;9.48;6.22;;;;;;;;;;5029259;28;20030;-65
2023/12/16 11:15:35;;;;;;;9.93;7.03;;;;;;;;;;5028747;28;20363;-63
2023/12/16 11:18:05;;;;;;;10.07;6.82;;;;;;;;;;5022333;28;20022;-63
2023/12/16 11:20:39;;;;;;;11.55;6.85;;;;;;;;;;5032443;28;20103;-61
2023/12/16 11:23:06;;;;;;;8.43;6.40;;;;;;;;;;5040475;28;20116;-61
2023/12/16 11:25:34;;;;;;;7.93;6.03;;;;;;;;;;5045789;28;20034;-61
2023/12/16 11:28:01;;;;;;;12.25;6.78;;;;;;;;;;5029875;28;20029;-62
2023/12/16 11:30:31;;;;;;;10.82;6.63;;;;;;;;;;5036684;28;20056;-62
2023/12/16 11:32:58;;;;;;;10.32;6.30;;;;;;;;;;5027454;28;20040;-62
2023/12/16 11:35:36;;;;;;;10.40;6.85;;;;;;;;;;5027626;28;20025;-63
2023/12/16 11:38:03;;;;;;;12.02;7.00;;;;;;;;;;5029377;28;20103;-63
2023/12/16 11:40:51;;;;;;;10.82;6.82;;;;;;;;;;5029720;28;20024;-63
2023/12/16 11:43:18;;;;;;;16.60;7.55;;;;;;;;;;5029091;28;20060;-63
2023/12/16 11:45:45;;;;;;;9.88;6.20;;;;;;;;;;5027443;28;20029;-62
2023/12/16 11:48:12;;;;;;;11.95;6.13;;;;;;;;;;5028366;28;20026;-63
2023/12/16 11:50:48;;;;;;;14.20;7.32;;;;;;;;;;5011029;28;20422;-65
2023/12/16 11:53:17;;;;;;;11.02;7.30;;;;;;;;;;5028697;28;20470;-63
2023/12/16 11:55:43;;;;;;;13.73;7.22;;;;;;;;;;5028783;28;20156;-63
2023/12/16 11:58:09;;;;;;;11.70;7.78;;;;;;;;;;5027917;28;20474;-65
2023/12/16 12:00:36;;;;;;;14.48;9.20;;;;;;;;;;5025265;28;20530;-66
2023/12/16 12:03:02;;;;;;;14.38;8.32;;;;;;;;;;5015809;28;20025;-65
2023/12/16 12:05:29;;;;;;;13.00;8.38;;;;;;;;;;5028901;28;20482;-66
2023/12/16 12:07:55;;;;;;;17.33;8.95;;;;;;;;;;5028041;28;20640;-65
2023/12/16 12:10:22;;;;;;;15.38;8.18;;;;;;;;;;5029164;28;20356;-64
2023/12/16 12:12:48;;;;;;;12.15;7.90;;;;;;;;;;5032041;28;20025;-67
2023/12/16 12:15:14;;;;;;;14.10;8.48;;;;;;;;;;5031995;28;20433;-64
2023/12/16 12:17:40;;;;;;;12.02;7.93;;;;;;;;;;5023413;28;20029;-63
2023/12/16 12:20:06;;;;;;;10.00;6.80;;;;;;;;;;5026957;28;20026;-64
2023/12/16 12:22:33;;;;;;;12.68;7.88;;;;;;;;;;5048568;28;20504;-64
2023/12/16 12:24:59;;;;;;;9.60;6.22;;;;;;;;;;5045093;28;20034;-63
2023/12/16 12:27:25;;;;;;;10.45;6.90;;;;;;;;;;5028587;28;20538;-63
2023/12/16 12:29:52;;;;;;;10.90;6.45;;;;;;;;;;5029795;28;20018;-67
2023/12/16 12:32:18;;;;;;;12.57;6.55;;;;;;;;;;5048431;28;20029;-63
2023/12/16 12:34:44;;;;;;;11.85;6.65;;;;;;;;;;5047401;28;20017;-63
2023/12/16 12:37:11;;;;;;;11.65;6.68;;;;;;;;;;5037057;28;20032;-63
2023/12/16 12:39:37;;;;;;;14.32;7.05;;;;;;;;;;5048532;28;20021;-64
2023/12/16 12:42:04;;;;;;;20.17;8.35;;;;;;;;;;5048793;28;20051;-63
2023/12/16 12:44:30;;;;;;;33.28;16.45;;;;;;;;;;5046937;28;20025;-63
2023/12/16 12:46:56;;;;;;;16.50;8.02;;;;;;;;;;5048277;28;20238;-63
2023/12/16 12:49:32;;;;;;;13.07;7.32;;;;;;;;;;5052357;28;20025;-64
2023/12/16 12:51:58;;;;;;;10.50;6.70;;;;;;;;;;5051289;28;20427;-63
2023/12/16 12:54:25;;;;;;;11.95;6.80;;;;;;;;;;5051164;28;20124;-63
2023/12/16 12:56:51;;;;;;;14.60;6.47;;;;;;;;;;5045772;28;20018;-64
2023/12/16 12:59:17;;;;;;;10.45;6.00;;;;;;;;;;5042457;28;20021;-63
2023/12/16 13:01:46;;;;;;;9.95;5.35;;;;;;;;;;5045359;28;20516;-65
2023/12/16 13:04:12;;;;;;;12.25;5.90;;;;;;;;;;5052313;28;20048;-65
2023/12/16 13:06:39;;;;;;;13.82;6.45;;;;;;;;;;5051018;28;20044;-64
2023/12/16 13:09:05;;;;;;;18.48;7.85;;;;;;;;;;5053018;28;20017;-64
2023/12/16 13:11:31;;;;;;;15.77;7.32;;;;;;;;;;5051531;28;20075;-64
2023/12/16 13:13:58;;;;;;;13.55;6.80;;;;;;;;;;5052587;28;20021;-64
2023/12/16 13:16:24;;;;;;;12.50;6.57;;;;;;;;;;5051895;28;20057;-63
2023/12/16 13:18:52;;;;;;;15.05;6.68;;;;;;;;;;5045018;28;20052;-66
2023/12/16 13:21:19;;;;;;;11.90;6.40;;;;;;;;;;5052234;28;20036;-69
2023/12/16 13:23:45;;;;;;;12.02;6.35;;;;;;;;;;5050856;28;20386;-65
2023/12/16 13:26:12;;;;;;;9.02;5.13;;;9.90;99.90;;;;;;5051957;28;20068;-64
2023/12/16 13:28:40;;;;;;;11.32;6.18;;;10.00;99.90;;;;;;5052158;28;20024;-64
2023/12/16 13:31:06;;;;;;;11.88;5.70;;;9.90;99.90;;;;;;5052059;28;20051;-64
2023/12/16 13:33:32;;;;;;;10.18;5.85;;;9.90;99.90;;;;;;5047644;28;20029;-65
2023/12/16 13:35:57;;;;;;;11.15;6.20;;;9.80;99.90;;;;;;5031571;28;20145;-64
2023/12/16 13:38:23;;;;;;;8.88;5.95;;;9.80;99.90;;;;;;5031666;28;20104;-64
2023/12/16 13:40:51;;;;;;;9.48;5.60;;;9.70;99.90;;;;;;5031997;28;20026;-64
2023/12/16 13:43:17;;;;;;;15.70;7.03;;;9.50;99.90;;;;;;5031263;28;20068;-64
2023/12/16 13:45:43;;;;;;;11.48;6.30;;;9.50;99.90;;;;;;5031456;28;20098;-64
2023/12/16 13:48:08;;;;;;;13.85;5.88;;;9.30;99.90;;;;;;5032401;28;20030;-64
2023/12/16 13:50:34;;;;;;;9.85;6.05;;;9.20;99.90;;;;;;5032420;28;20627;-63
2023/12/16 13:52:59;;;;;;;11.95;5.80;;;9.00;99.90;;;;;;5030306;28;20044;-65
2023/12/16 13:55:25;;;;;;;10.95;4.35;;;8.90;99.90;;;;;;5031904;28;20053;-64
2023/12/16 13:57:51;;;;;;;12.52;4.55;;;8.70;99.90;;;;;;5030326;28;20104;-65
2023/12/16 14:00:17;;;;;;;15.75;5.07;;;8.50;99.90;;;;;;5032014;28;20351;-65
2023/12/16 14:02:43;;;;;;;15.80;4.63;;;8.30;99.90;;;;;;5030010;28;20080;-66
2023/12/16 14:05:09;;;;;;;11.10;4.82;;;8.20;99.90;;;;;;5031414;28;20033;-65
2023/12/16 14:07:35;;;;;;;8.95;4.43;;;8.10;99.90;;;;;;5019093;28;20028;-64
2023/12/16 14:10:01;;;;;;;9.07;4.45;;;8.00;99.90;;;;;;5027893;28;20534;-63
2023/12/16 14:12:26;;;;;;;10.02;4.93;;;7.90;99.90;;;;;;5030933;28;20611;-64
2023/12/16 14:14:52;;;;;;;17.38;5.05;;;7.80;99.90;;;;;;5030351;28;20045;-64
2023/12/16 14:17:18;;;;;;;9.90;4.75;;;7.70;99.90;;;;;;5030887;28;20205;-64
2023/12/16 14:19:43;;;;;;;10.85;4.80;;;7.70;99.90;;;;;;5024576;28;20026;-64
2023/12/16 14:22:09;;;;;;;11.98;5.32;;;7.60;99.90;;;;;;5030974;28;20033;-64
2023/12/16 14:24:34;;;;;;;12.07;4.97;;;7.60;99.90;;;;;;5030245;28;20087;-65